Time;durP1;ratioP1;P1;durP2;ratioP2;P2;SDS_P1;SDS_P2;PMS_P1;PMS_P2;Temp;Humidity;BMP_temperature;BMP_pressure;BME280_temperature;BME280_humidity;BME280_pressure;Samples;Min_cycle;Max_cycle;Signal;HPM_P1;HPM_P2
2022/04/18 00:01:37;;;;;;;4.33;2.60;;;;;;;12.15;38.81;101017.97;5079150;28;20370;-69
2022/04/18 00:04:05;;;;;;;5.20;2.87;;;;;;;12.31;38.76;101015.56;5083278;28;20215;-67
2022/04/18 00:06:35;;;;;;;5.03;2.83;;;;;;;12.21;39.25;101020.91;5082471;28;20302;-68
2022/04/18 00:09:03;;;;;;;5.03;2.77;;;;;;;12.23;39.02;101018.91;5079944;28;20579;-68
2022/04/18 00:11:31;;;;;;;5.83;3.20;;;;;;;12.21;39.21;101014.75;5082734;28;20234;-68
2022/04/18 00:13:59;;;;;;;8.50;3.53;;;;;;;12.26;39.16;101015.97;5082178;28;20221;-69
2022/04/18 00:16:27;;;;;;;5.50;3.17;;;;;;;12.25;39.39;101016.97;5082023;28;20220;-69
2022/04/18 00:18:56;;;;;;;8.57;3.00;;;;;;;12.26;39.47;101015.97;5081799;28;20300;-68
2022/04/18 00:21:24;;;;;;;5.70;3.00;;;;;;;12.24;39.63;101012.63;5079446;28;20584;-69
2022/04/18 00:23:52;;;;;;;5.30;3.30;;;;;;;12.23;39.84;101007.44;5085204;28;20256;-67
2022/04/18 00:26:20;;;;;;;7.77;3.13;;;;;;;12.13;39.79;101004.84;5083842;28;20233;-68
2022/04/18 00:28:48;;;;;;;10.03;3.80;;;;;;;12.11;40.21;101009.47;5088081;28;20203;-69
2022/04/18 00:31:15;;;;;;;4.73;2.80;;;;;;;12.00;40.13;101009.63;5087766;28;20199;-68
2022/04/18 00:33:43;;;;;;;8.43;2.63;;;;;;;11.87;40.28;101002.00;5082901;28;20212;-69
2022/04/18 00:36:12;;;;;;;6.23;2.90;;;;;;;11.90;40.31;101003.50;5084612;28;20568;-69
2022/04/18 00:38:44;;;;;;;6.57;3.07;;;;;;;11.85;40.30;100997.78;5088020;28;20259;-68
2022/04/18 00:41:12;;;;;;;7.50;3.20;;;;;;;11.88;40.35;100992.16;5090527;28;20242;-68
2022/04/18 00:43:42;;;;;;;5.00;2.53;;;;;;;11.77;40.63;100989.69;5085554;28;20214;-68
2022/04/18 00:46:11;;;;;;;6.87;2.87;;;;;;;11.75;40.56;100996.97;5089101;28;20205;-69
2022/04/18 00:48:39;;;;;;;5.10;2.67;;;;;;;11.72;40.61;100987.41;5085489;28;20209;-69
2022/04/18 00:51:10;;;;;;;4.93;2.90;;;;;;;11.87;40.58;100980.72;5087356;28;20731;-68
2022/04/18 00:53:42;;;;;;;6.67;2.30;;;;;;;11.87;40.84;100977.22;5082069;28;20223;-69
2022/04/18 00:56:13;;;;;;;6.17;2.70;;;;;;;11.84;40.82;100975.69;5086163;28;20564;-70
2022/04/18 00:58:42;;;;;;;4.73;2.43;;;;;;;11.79;40.37;100971.78;5083560;28;20224;-68
2022/04/18 01:01:10;;;;;;;6.10;2.50;;;;;;;11.63;40.81;100981.16;5086500;28;20324;-69
2022/04/18 01:03:38;;;;;;;6.03;3.10;;;;;;;11.72;40.49;100967.97;5082800;28;20204;-68
2022/04/18 01:06:06;;;;;;;5.80;2.60;;;;;;;11.76;40.93;100969.41;5086112;28;20213;-69
2022/04/18 01:08:36;;;;;;;7.77;2.60;;;;;;;11.72;40.99;100967.97;5084395;28;20217;-69
2022/04/18 01:11:06;;;;;;;3.63;1.90;;;;;;;11.48;41.22;100969.28;5083414;28;20209;-68
2022/04/18 01:13:41;;;;;;;5.97;2.83;;;;;;;11.43;41.77;100970.72;5081995;28;20209;-69
2022/04/18 01:16:09;;;;;;;6.13;2.83;;;;;;;11.55;41.44;100970.41;5086010;28;20208;-67
2022/04/18 01:18:38;;;;;;;5.37;2.83;;;;;;;11.58;41.18;100958.66;5085185;28;20552;-67
2022/04/18 01:21:08;;;;;;;4.07;2.10;;;;;;;11.58;41.15;100959.50;5082272;28;20304;-68
2022/04/18 01:23:35;;;;;;;6.73;2.73;;;;;;;11.51;41.03;100962.88;5085668;28;20206;-68
2022/04/18 01:28:59;;;;;;;4.70;2.37;;;;;;;11.43;41.04;100952.13;5083846;28;20278;-68
2022/04/18 01:31:27;;;;;;;5.50;2.63;;;;;;;11.51;41.01;100946.94;5086137;28;20233;-68
2022/04/18 01:33:55;;;;;;;5.30;2.70;;;;;;;11.59;41.22;100949.72;5082780;28;20669;-69
2022/04/18 01:36:24;;;;;;;9.23;2.70;;;;;;;11.53;41.00;100943.13;5085803;28;20260;-68
2022/04/18 01:38:52;;;;;;;5.70;2.70;;;;;;;11.36;41.75;100943.88;5083659;28;20756;-69
2022/04/18 01:41:20;;;;;;;7.50;2.80;;;;;;;11.48;41.45;100940.06;5085096;28;20236;-69
2022/04/18 01:43:47;;;;;;;6.33;2.60;;;;;;;11.40;41.42;100944.44;5082777;28;20229;-68
2022/04/18 01:46:16;;;;;;;3.77;2.10;;;;;;;11.44;40.92;100936.03;5083044;28;20567;-68
2022/04/18 01:48:46;;;;;;;7.50;2.50;;;;;;;11.45;41.10;100942.16;5077400;28;20205;-67
2022/04/18 01:51:14;;;;;;;4.67;2.37;;;;;;;11.40;41.36;100947.09;5082785;28;20599;-68
2022/04/18 01:53:43;;;;;;;7.70;2.27;;;;;;;11.34;41.23;100934.38;5082668;28;20721;-68
2022/04/18 01:56:11;;;;;;;4.53;2.37;;;;;;;10.86;41.91;100938.72;5083648;28;20197;-69
2022/04/18 01:58:39;;;;;;;4.77;2.40;;;;;;;11.07;41.75;100941.25;5079051;28;20233;-68
2022/04/18 02:01:06;;;;;;;5.47;2.67;;;;;;;11.15;41.63;100941.38;5083681;28;20227;-68
2022/04/18 02:03:34;;;;;;;5.10;2.33;;;;;;;11.12;41.80;100940.81;5080118;28;20226;-68
2022/04/18 02:06:02;;;;;;;4.13;2.20;;;;;;;11.17;41.17;100927.97;5083059;28;20224;-67
2022/04/18 02:08:30;;;;;;;4.13;2.37;;;;;;;11.14;41.36;100936.22;5081817;28;20205;-68
2022/04/18 02:10:59;;;;;;;6.63;2.17;;;;;;;10.79;42.02;100929.63;5075992;28;20212;-68
2022/04/18 02:13:28;;;;;;;5.30;2.27;;;;;;;10.90;41.68;100926.03;5081830;28;20200;-68
2022/04/18 02:15:57;;;;;;;5.97;2.03;;;;;;;10.97;41.29;100931.59;5082385;28;20305;-68
2022/04/18 02:18:25;;;;;;;4.53;2.17;;;;;;;11.03;41.02;100921.25;5079109;28;20605;-69
2022/04/18 02:20:52;;;;;;;5.87;2.63;;;;;;;11.07;40.88;100919.19;5080278;28;20553;-68
2022/04/18 02:23:20;;;;;;;8.30;2.43;;;;;;;10.85;41.63;100915.81;5077944;28;20227;-68
2022/04/18 02:25:48;;;;;;;5.90;2.33;;;;;;;10.79;41.58;100918.19;5083556;28;20203;-68
2022/04/18 02:28:17;;;;;;;3.40;2.00;;;;;;;10.88;41.45;100920.84;5086048;28;20212;-68
2022/04/18 02:30:45;;;;;;;4.63;2.23;;;;;;;10.89;41.59;100922.53;5083486;28;20207;-68
2022/04/18 02:33:13;;;;;;;5.30;2.60;;;;;;;10.82;41.50;100921.38;5083387;28;20682;-68
2022/04/18 02:35:40;;;;;;;2.80;1.83;;;;;;;10.77;41.71;100913.00;5083787;28;20213;-68
2022/04/18 02:38:08;;;;;;;4.17;2.00;;;;;;;10.63;41.75;100917.91;5080168;28;20234;-67
2022/04/18 02:40:39;;;;;;;5.30;2.13;;;;;;;10.65;41.68;100921.22;5081765;28;20493;-67
2022/04/18 02:43:06;;;;;;;6.10;2.27;;;;;;;10.67;41.88;100914.81;5082602;28;20258;-68
2022/04/18 02:45:35;;;;;;;3.77;2.03;;;;;;;10.71;41.67;100916.22;5079599;28;20286;-68
2022/04/18 02:48:04;;;;;;;4.23;2.47;;;;;;;10.76;41.68;100914.00;5081192;28;20693;-68
2022/04/18 02:50:37;;;;;;;3.43;2.00;;;;;;;10.72;42.03;100911.75;5082934;28;20699;-68
2022/04/18 02:53:06;;;;;;;4.80;2.10;;;;;;;10.38;42.35;100912.09;5079452;28;20383;-68
2022/04/18 02:55:34;;;;;;;6.27;2.50;;;;;;;10.67;41.85;100909.50;5083567;28;20245;-68
2022/04/18 02:58:01;;;;;;;4.60;2.10;;;;;;;10.61;41.71;100912.72;5081548;28;20625;-68
2022/04/18 03:00:29;;;;;;;5.23;2.10;;;;;;;10.73;41.96;100908.94;5081195;28;20678;-67
2022/04/18 03:02:58;;;;;;;4.13;2.40;;;;;;;10.70;42.08;100906.59;5082359;28;20687;-67
2022/04/18 03:05:26;;;;;;;7.33;2.50;;;;;;;10.54;42.47;100904.50;5081331;28;20648;-68
2022/04/18 03:07:53;;;;;;;3.77;1.87;;;;;;;10.54;42.49;100898.34;5079738;28;20630;-68
2022/04/18 03:11:02;;;;;;;4.70;2.20;;;;;;;10.52;42.63;100905.59;5077462;28;20229;-67
2022/04/18 03:13:09;;;;;;;4.67;2.50;;;;;;;10.56;42.27;100891.06;5078442;28;20223;-67
2022/04/18 03:15:37;;;;;;;6.60;2.03;;;;;;;10.59;42.31;100889.97;5079127;28;20238;-68
2022/04/18 03:18:06;;;;;;;5.63;2.43;;;;;;;10.12;43.40;100887.88;5077680;28;20221;-68
2022/04/18 03:20:34;;;;;;;4.67;2.20;;;;;;;10.24;43.00;100885.16;5081253;28;20213;-67
2022/04/18 03:23:01;;;;;;;5.80;2.27;;;;;;;10.37;42.78;100886.59;5078577;28;20238;-68
2022/04/18 03:25:29;;;;;;;4.53;2.60;;;;;;;10.36;43.01;100884.06;5078295;28;20209;-68
2022/04/18 03:27:57;;;;;;;6.77;2.80;;;;;;;10.31;43.06;100886.28;5081645;28;20211;-69
2022/04/18 03:30:24;;;;;;;5.17;2.80;;;;;;;10.34;42.84;100886.03;5080120;28;20221;-68
2022/04/18 03:32:52;;;;;;;4.80;2.57;;;;;;;10.26;43.28;100884.06;5080705;28;20554;-68
2022/04/18 03:35:21;;;;;;;5.30;2.60;;;;;;;10.38;42.82;100888.25;5082189;28;20208;-68
2022/04/18 03:40:35;;;;;;;6.17;2.53;;;;;;;10.33;43.19;100879.03;5080745;28;20216;-68
2022/04/18 03:43:03;;;;;;;4.30;2.47;;;;;;;10.38;43.17;100876.84;5080976;28;20754;-67
2022/04/18 03:45:30;;;;;;;4.57;2.23;;;;;;;10.23;43.31;100884.31;5077934;28;20207;-68
2022/04/18 03:47:58;;;;;;;5.20;2.67;;;;;;;10.14;43.37;100877.97;5079918;28;20225;-69
2022/04/18 03:50:27;;;;;;;4.27;2.20;;;;;;;10.03;43.72;100872.78;5079306;28;20214;-69
2022/04/18 03:52:55;;;;;;;9.00;2.87;;;;;;;10.12;43.70;100871.97;5080729;28;20622;-68
2022/04/18 03:55:22;;;;;;;9.90;2.43;;;;;;;9.35;45.31;100869.00;5081865;28;20248;-68
2022/04/18 03:57:50;;;;;;;7.73;2.80;;;;;;;9.96;43.67;100866.34;5077827;28;20217;-69
2022/04/18 04:00:18;;;;;;;7.00;2.27;;;;;;;10.05;43.64;100870.84;5083193;28;20203;-69
2022/04/18 04:02:45;;;;;;;7.37;2.40;;;;;;;10.16;43.56;100865.44;5081619;28;20229;-68
2022/04/18 04:05:13;;;;;;;6.37;2.53;;;;;;;10.11;43.95;100878.25;5075742;28;20264;-68
2022/04/18 04:07:42;;;;;;;4.17;2.20;;;;;;;10.10;43.96;100883.69;5084686;28;20213;-68
2022/04/18 04:10:10;;;;;;;5.83;2.53;;;;;;;10.05;44.13;100884.09;5078441;28;20206;-68
2022/04/18 04:12:38;;;;;;;4.67;2.20;;;;;;;10.06;44.00;100876.97;5082564;28;20221;-68
2022/04/18 04:15:06;;;;;;;3.87;1.77;;;;;;;9.85;44.53;100866.44;5081408;28;20496;-68
2022/04/18 04:17:34;;;;;;;4.57;2.30;;;;;;;9.82;44.51;100869.38;5081998;28;20223;-68
2022/04/18 04:20:22;;;;;;;3.83;2.03;;;;;;;9.68;44.86;100872.38;5080839;28;20472;-68
2022/04/18 04:22:51;;;;;;;3.27;2.10;;;;;;;9.93;44.44;100869.28;5083104;28;20237;-68
2022/04/18 04:25:19;;;;;;;6.10;2.40;;;;;;;9.69;44.51;100866.09;5078978;28;20206;-67
2022/04/18 04:27:47;;;;;;;4.27;2.07;;;;;;;9.72;44.96;100864.03;5080906;28;20221;-68
2022/04/18 04:30:15;;;;;;;3.87;1.90;;;;;;;9.88;44.71;100871.47;5080234;28;20214;-68
2022/04/18 04:32:45;;;;;;;3.93;1.97;;;;;;;9.85;44.73;100862.97;5083458;28;20698;-70
2022/04/18 04:35:15;;;;;;;3.67;2.13;;;;;;;9.92;44.80;100869.41;5082217;28;20253;-68
2022/04/18 04:37:42;;;;;;;3.80;2.10;;;;;;;9.88;45.09;100873.28;5082393;28;20206;-68
2022/04/18 04:40:12;;;;;;;5.17;2.30;;;;;;;9.91;44.99;100868.56;5086572;28;20214;-68
2022/04/18 04:42:40;;;;;;;3.90;2.00;;;;;;;9.94;44.97;100868.28;5077344;28;20293;-69
2022/04/18 04:45:08;;;;;;;6.83;2.30;;;;;;;9.84;44.93;100872.75;5079597;28;20340;-67
2022/04/18 04:47:36;;;;;;;6.70;2.40;;;;;;;9.89;44.94;100870.50;5082606;28;20207;-68
2022/04/18 04:50:04;;;;;;;7.17;2.40;;;;;;;9.84;45.13;100871.91;5081589;28;20221;-68
2022/04/18 04:52:32;;;;;;;3.87;2.20;;;;;;;9.85;45.07;100874.38;5080386;28;20297;-68
2022/04/18 04:55:00;;;;;;;10.70;2.53;;;;;;;9.80;45.47;100876.59;5080754;28;20311;-68
2022/04/18 04:57:29;;;;;;;3.87;2.47;;;;;;;9.90;45.11;100877.50;5078439;28;20203;-68
2022/04/18 04:59:57;;;;;;;4.97;2.33;;;;;;;9.91;45.12;100879.16;5081030;28;20592;-68
2022/04/18 05:02:25;;;;;;;3.90;2.07;;;;;;;9.77;45.31;100872.41;5080025;28;20211;-68
2022/04/18 05:04:53;;;;;;;5.40;2.90;;;;;;;9.83;45.37;100871.06;5079671;28;20456;-69
2022/04/18 05:07:20;;;;;;;4.67;2.40;;;;;;;9.78;45.19;100873.25;5080106;28;20483;-69
2022/04/18 05:09:48;;;;;;;5.90;2.30;;;;;;;9.82;45.25;100869.38;5081707;28;20234;-69
2022/04/18 05:12:16;;;;;;;4.80;2.17;;;;;;;9.89;45.17;100873.16;5087340;28;20260;-69
2022/04/18 05:14:45;;;;;;;10.47;2.97;;;;;;;9.79;45.17;100869.63;5085835;28;20260;-70
2022/04/18 05:17:12;;;;;;;4.10;2.50;;;;;;;9.87;45.24;100875.09;5088931;28;20206;-69
2022/04/18 05:19:40;;;;;;;6.80;2.83;;;;;;;9.85;45.28;100882.34;5086312;28;20234;-70
2022/04/18 05:22:08;;;;;;;5.93;2.43;;;;;;;9.95;44.91;100880.56;5090711;28;20221;-69
2022/04/18 05:24:35;;;;;;;4.13;2.40;;;;;;;9.93;44.84;100881.69;5090278;28;20238;-69
2022/04/18 05:27:03;;;;;;;6.37;2.10;;;;;;;9.90;45.30;100879.31;5089991;28;20203;-69
2022/04/18 05:29:31;;;;;;;7.03;2.63;;;;;;;10.07;44.70;100882.16;5088969;28;20241;-69
2022/04/18 05:32:00;;;;;;;4.33;2.47;;;;;;;9.98;44.91;100880.31;5084685;28;20211;-70
2022/04/18 05:34:28;;;;;;;5.97;2.50;;;;;;;9.88;45.06;100873.28;5087786;28;20206;-69
2022/04/18 05:36:55;;;;;;;4.27;2.30;;;;;;;9.92;44.89;100875.56;5090645;28;20712;-68
2022/04/18 05:39:23;;;;;;;5.27;2.23;;;;;;;9.98;45.27;100880.31;5089922;28;20210;-69
2022/04/18 05:41:51;;;;;;;23.43;2.60;;;;;;;10.10;45.27;100879.25;5088269;28;20233;-68
2022/04/18 05:44:18;;;;;;;3.37;2.20;;;;;;;10.04;45.83;100878.91;5087099;28;20241;-69
2022/04/18 05:46:46;;;;;;;4.77;2.50;;;;;;;10.21;44.99;100874.81;5087511;28;20570;-68
2022/04/18 05:49:15;;;;;;;5.57;2.20;;;;;;;9.88;45.54;100879.44;5089900;28;20229;-68
2022/04/18 05:51:43;;;;;;;4.63;2.10;;;;;;;10.12;45.38;100877.28;5088531;28;20210;-68
2022/04/18 05:54:11;;;;;;;4.80;2.50;;;;;;;10.09;45.61;100882.88;5090333;28;20246;-68
2022/04/18 05:56:38;;;;;;;4.70;2.40;;;;;;;10.24;45.13;100879.84;5084274;28;20321;-69
2022/04/18 05:59:06;;;;;;;4.93;2.83;;;;;;;10.22;45.80;100881.78;5088094;28;20223;-69
2022/04/18 06:01:35;;;;;;;5.57;2.90;;;;;;;10.23;45.70;100886.13;5086847;28;20208;-69
2022/04/18 06:04:03;;;;;;;4.87;2.50;;;;;;;10.32;45.27;100878.19;5088332;28;20231;-69
2022/04/18 06:06:33;;;;;;;4.97;2.50;;;;;;;10.30;45.79;100879.28;5086210;28;20211;-69
2022/04/18 06:09:00;;;;;;;4.23;2.37;;;;;;;10.37;45.60;100888.41;5080129;28;20442;-69
2022/04/18 06:11:28;;;;;;;4.27;2.00;;;;;;;10.36;45.95;100882.25;5087343;28;20213;-68
2022/04/18 06:13:56;;;;;;;10.27;2.57;;;;;;;10.39;46.43;100889.09;5088601;28;20652;-68
2022/04/18 06:16:24;;;;;;;6.00;2.43;;;;;;;10.48;46.30;100880.31;5086073;28;20261;-68
2022/04/18 06:18:51;;;;;;;6.40;2.70;;;;;;;10.47;46.72;100891.88;5087450;28;20218;-68
2022/04/18 06:21:19;;;;;;;4.63;2.33;;;;;;;10.55;46.21;100886.75;5087927;28;20517;-68
2022/04/18 06:23:48;;;;;;;5.83;2.57;;;;;;;10.58;46.41;100889.13;5086880;28;20215;-68
2022/04/18 06:26:16;;;;;;;5.07;2.50;;;;;;;10.64;46.39;100888.59;5084796;28;20213;-68
2022/04/18 06:28:43;;;;;;;4.53;2.53;;;;;;;10.67;46.43;100898.06;5082595;28;20211;-68
2022/04/18 06:31:11;;;;;;;8.40;2.30;;;;;;;10.57;46.53;100895.41;5084085;28;20204;-68
2022/04/18 06:33:39;;;;;;;4.73;2.67;;;;;;;10.76;46.44;100886.63;5083238;28;20209;-68
2022/04/18 06:36:07;;;;;;;5.53;3.10;;;;;;;10.79;46.33;100889.00;5081332;28;20215;-68
2022/04/18 06:38:34;;;;;;;6.50;2.67;;;;;;;10.86;46.19;100887.47;5079031;28;20219;-69
2022/04/18 06:41:03;;;;;;;6.93;2.70;;;;;;;10.82;46.45;100886.91;5085452;28;20211;-68
2022/04/18 06:43:31;;;;;;;4.87;2.30;;;;;;;10.92;46.75;100893.03;5088451;28;20206;-68
2022/04/18 06:45:59;;;;;;;5.13;2.67;;;;;;;10.98;46.90;100885.53;5086253;28;20325;-69
2022/04/18 06:48:26;;;;;;;5.37;2.13;;;;;;;11.10;46.57;100892.34;5086495;28;20355;-69
2022/04/18 06:50:54;;;;;;;6.97;2.40;;;;;;;11.16;46.41;100883.81;5084673;28;20216;-68
2022/04/18 06:53:22;;;;;;;4.30;2.33;;;;;;;11.24;46.47;100894.56;5077239;28;20221;-68
2022/04/18 06:58:36;;;;;;;6.03;2.50;;;;;;;11.34;46.44;100887.44;5078002;28;20203;-68
2022/04/18 07:01:05;;;;;;;4.07;2.27;;;;;;;11.44;46.38;100888.22;5077910;28;20219;-69
2022/04/18 07:03:33;;;;;;;4.87;2.57;;;;;;;11.43;46.49;100883.06;5083051;28;20204;-68
2022/04/18 07:06:00;;;;;;;7.37;3.00;;;;;;;11.42;46.07;100884.91;5085039;28;20693;-68
2022/04/18 07:08:28;;;;;;;7.40;3.20;;;;;;;11.54;46.03;100883.72;5078595;28;20209;-69
2022/04/18 07:10:56;;;;;;;4.90;2.87;;;;;;;11.65;45.97;100874.75;5079745;28;20316;-69
2022/04/18 07:13:24;;;;;;;11.70;2.77;;;;;;;11.55;45.90;100881.91;5079703;28;20217;-69
2022/04/18 07:15:53;;;;;;;6.70;2.80;;;;;;;11.74;45.47;100875.69;5079362;28;20205;-69
2022/04/18 07:18:21;;;;;;;3.40;2.20;;;;;;;11.81;45.36;100879.47;5079951;28;20274;-69
2022/04/18 07:20:49;;;;;;;5.87;2.33;;;;;;;11.84;45.41;100879.19;5080364;28;20209;-69
2022/04/18 07:23:16;;;;;;;5.03;2.67;;;;;;;11.87;45.07;100882.41;5078592;28;20271;-69
2022/04/18 07:25:44;;;;;;;7.33;2.90;;;;;;;11.99;44.57;100880.38;5080781;28;20222;-69
2022/04/18 07:28:12;;;;;;;4.90;2.70;;;;;;;12.02;44.05;100874.78;5076706;28;20224;-69
2022/04/18 07:30:40;;;;;;;7.07;3.30;;;;;;;12.08;44.24;100874.19;5080169;28;20208;-68
2022/04/18 07:33:10;;;;;;;6.33;2.90;;;;;;;12.10;43.70;100879.34;5078869;28;20233;-68
2022/04/18 07:35:38;;;;;;;9.30;2.97;;;;;;;12.12;43.82;100872.06;5078292;28;20550;-69
2022/04/18 07:40:51;;;;;;;4.80;2.70;;;;;;;12.27;43.85;100878.53;5084703;28;20522;-69
2022/04/18 07:43:19;;;;;;;5.87;3.20;;;;;;;12.31;43.76;100883.41;5079705;28;20221;-68
2022/04/18 07:45:47;;;;;;;10.50;3.40;;;;;;;12.38;43.53;100886.31;5082365;28;20234;-68
2022/04/18 07:48:16;;;;;;;7.57;3.50;;;;;;;12.46;43.31;100883.75;5081392;28;20231;-69
2022/04/18 07:53:31;;;;;;;6.63;2.43;;;;;;;12.75;43.25;100888.88;5082006;28;20700;-69
2022/04/18 07:55:59;;;;;;;7.13;3.40;;;;;;;12.85;42.29;100886.94;5081127;28;20239;-68
2022/04/18 07:58:33;;;;;;;4.83;3.00;;;;;;;12.95;42.30;100893.03;5079732;28;20203;-70
2022/04/18 08:01:01;;;;;;;7.10;3.40;;;;;;;13.06;42.47;100890.13;5063603;28;20216;-69
2022/04/18 08:03:34;;;;;;;5.00;3.00;;;;;;;13.15;41.90;100877.75;5081504;28;20710;-69
2022/04/18 08:06:02;;;;;;;8.67;3.60;;;;;;;13.19;41.44;100877.28;5079681;28;20616;-69
2022/04/18 08:08:30;;;;;;;8.93;3.33;;;;;;;13.33;41.43;100883.06;5081781;28;20211;-69
2022/04/18 08:10:58;;;;;;;10.27;3.07;;;;;;;13.47;40.69;100887.78;5080410;28;20212;-71
2022/04/18 08:13:27;;;;;;;9.13;5.30;;;;;;;13.59;38.98;100875.91;5082270;28;20204;-69
2022/04/18 08:15:55;;;;;;;6.13;3.57;;;;;;;13.70;37.08;100880.97;5079613;28;20564;-69
2022/04/18 08:18:23;;;;;;;5.53;3.00;;;;;;;13.74;36.66;100879.63;5079400;28;20213;-69
2022/04/18 08:20:53;;;;;;;6.03;2.93;;;;;;;13.88;38.13;100876.38;5081595;28;20237;-68
2022/04/18 08:23:21;;;;;;;6.50;2.87;;;;;;;13.93;37.37;100879.41;5081974;28;20216;-68
2022/04/18 08:25:49;;;;;;;7.60;3.40;;;;;;;14.05;37.70;100881.78;5079101;28;20254;-68
2022/04/18 08:28:17;;;;;;;5.80;3.20;;;;;;;14.12;38.33;100885.47;5083900;28;20552;-68
2022/04/18 08:30:45;;;;;;;7.53;3.30;;;;;;;14.30;37.96;100897.72;5082602;28;20294;-68
2022/04/18 08:33:13;;;;;;;5.03;3.13;;;;;;;14.40;37.39;100891.44;5084647;28;20312;-68
2022/04/18 08:35:41;;;;;;;6.20;3.00;;;;;;;14.50;37.79;100887.66;5082235;28;20205;-68
2022/04/18 08:38:10;;;;;;;11.10;3.33;;;;;;;14.58;36.79;100890.31;5083526;28;20217;-69
2022/04/18 08:40:38;;;;;;;5.10;2.73;;;;;;;14.72;36.94;100886.16;5085429;28;20631;-71
2022/04/18 08:43:05;;;;;;;5.20;2.90;;;;;;;14.78;36.98;100884.66;5084596;28;20654;-70
2022/04/18 08:45:33;;;;;;;6.03;3.40;;;;;;;14.88;37.69;100882.66;5088936;28;20261;-68
2022/04/18 08:53:34;;;;;;;7.75;3.83;;;;;;;15.25;37.02;100877.66;5085057;28;20863;-70
2022/04/18 08:56:03;;;;;;;7.53;3.43;;;;;;;15.38;37.38;100872.66;5083707;28;20297;-71
2022/04/18 08:58:33;;;;;;;8.67;3.33;;;;;;;15.48;36.90;100874.31;5086273;28;20207;-69
2022/04/18 09:01:03;;;;;;;10.13;3.57;;;;;;;15.59;35.92;100877.47;5089632;28;20329;-69
2022/04/18 09:03:34;;;;;;;5.73;2.97;;;;;;;15.67;36.53;100873.94;5096254;28;20468;-69
2022/04/18 09:06:08;;;;;;;5.87;3.00;;;;;;;15.68;35.66;100871.09;5085982;28;20325;-69
2022/04/18 09:08:46;;;;;;;8.03;3.57;;;;;;;15.89;35.70;100867.88;5086157;28;20647;-69
2022/04/18 09:11:27;;;;;;;7.70;3.57;;;;;;;15.94;35.20;100862.81;5087629;28;20230;-69
2022/04/18 09:13:59;;;;;;;8.90;3.27;;;;;;;16.10;34.70;100868.09;5081120;28;20573;-73
2022/04/18 09:16:30;;;;;;;5.63;3.20;;;;;;;16.23;35.54;100869.38;5086534;28;20203;-73
2022/04/18 09:19:06;;;;;;;7.67;3.73;;;;;;;16.34;36.02;100864.50;5086340;28;20634;-72
2022/04/18 09:21:33;;;;;;;10.90;3.73;;;;;;;16.49;34.86;100865.38;5086447;28;20203;-73
2022/04/18 09:24:03;;;;;;;7.93;3.77;;;;;;;16.69;35.45;100856.94;5081184;28;20654;-72
2022/04/18 09:26:31;;;;;;;7.30;3.67;;;;;;;16.83;34.84;100854.31;5086247;28;20234;-72
2022/04/18 09:29:05;;;;;;;9.07;3.60;;;;;;;16.91;33.94;100845.38;5083888;28;20210;-73
2022/04/18 09:31:40;;;;;;;9.40;3.40;;;;;;;17.06;34.76;100842.75;5086092;28;20275;-72
2022/04/18 09:34:08;;;;;;;6.63;3.00;;;;;;;17.25;33.25;100847.56;5086427;28;20206;-71
2022/04/18 09:36:36;;;;;;;6.67;3.50;;;;;;;17.54;31.16;100839.56;5086333;28;20318;-72
2022/04/18 09:39:05;;;;;;;5.53;3.20;;;;;;;17.53;33.22;100837.06;5085471;28;20333;-68
2022/04/18 09:41:33;;;;;;;6.87;3.13;;;;;;;17.39;33.38;100835.22;5084322;28;20238;-68
2022/04/18 09:44:01;;;;;;;6.63;3.17;;;;;;;17.26;34.02;100835.84;5088837;28;20209;-71
2022/04/18 09:46:29;;;;;;;9.57;3.50;;;;;;;17.39;33.59;100836.06;5088436;28;20223;-67
2022/04/18 09:49:02;;;;;;;6.77;3.13;;;;;;;17.42;32.64;100832.97;5084537;28;20604;-65
2022/04/18 09:51:37;;;;;;;9.57;3.20;;;;;;;17.49;33.49;100827.75;5081322;28;20628;-65
2022/04/18 09:54:07;;;;;;;5.27;3.20;;;;;;;17.53;32.98;100827.16;5081929;28;20493;-66
2022/04/18 09:56:35;;;;;;;6.00;3.30;;;;;;;17.20;32.53;100815.97;5085631;28;20303;-65
2022/04/18 09:59:04;;;;;;;5.07;2.73;;;;;;;17.22;32.16;100815.78;5084250;28;20213;-64
2022/04/18 10:01:33;;;;;;;9.33;3.10;;;;;;;17.27;31.10;100813.38;5084854;28;20762;-64
2022/04/18 10:04:02;;;;;;;7.73;2.93;;;;;;;17.12;32.04;100810.69;5084715;28;20474;-64
2022/04/18 10:06:31;;;;;;;4.77;2.93;;;;;;;17.10;32.63;100806.53;5083979;28;20238;-65
2022/04/18 10:08:59;;;;;;;6.00;3.03;;;;;;;17.17;32.88;100804.78;5084725;28;20203;-64
2022/04/18 10:11:29;;;;;;;7.25;3.75;;;;;;;17.37;32.46;100805.91;5083176;28;20536;-63
2022/04/18 10:13:56;;;;;;;4.97;2.50;;;;;;;17.26;32.32;100806.34;5084461;28;20203;-63
2022/04/18 10:16:25;;;;;;;6.97;2.63;;;;;;;17.26;33.00;100803.66;5083576;28;20282;-64
2022/04/18 10:18:57;;;;;;;5.23;3.07;;;;;;;17.25;32.04;100796.66;5084048;28;20206;-64
2022/04/18 10:21:28;;;;;;;8.17;3.10;;;;;;;17.33;33.04;100788.50;5084632;28;20203;-63
2022/04/18 10:24:19;;;;;;;5.17;2.37;;;;;;;17.30;33.32;100787.06;5079006;28;20317;-64
2022/04/18 10:27:26;;;;;;;6.27;3.20;;;;;;;17.41;32.95;100779.59;5084752;28;20219;-62
2022/04/18 10:29:56;;;;;;;5.60;2.60;;;;;;;17.49;33.12;100783.00;5087223;28;20204;-64
2022/04/18 10:32:26;;;;;;;6.00;2.40;;;;;;;17.54;33.76;100783.25;5088065;28;20242;-64
2022/04/18 10:34:59;;;;;;;14.97;3.10;;;;;;;17.46;34.40;100780.69;5083616;28;20207;-67
2022/04/18 10:37:28;;;;;;;7.27;2.47;;;;;;;17.53;33.48;100772.72;5085831;28;20203;-67
2022/04/18 10:40:01;;;;;;;5.50;2.47;;;;;;;17.59;34.00;100772.78;5080888;28;20210;-68
2022/04/18 10:42:33;;;;;;;5.97;2.50;;;;;;;17.60;34.12;100765.59;5088223;28;20205;-69
2022/04/18 10:45:07;;;;;;;6.37;2.20;;;;;;;17.86;32.27;100765.13;5086964;28;20228;-71
2022/04/18 10:48:09;;;;;;;81.80;6.23;;;;;;;17.79;33.21;100759.69;5087639;28;20416;-71
2022/04/18 10:50:40;;;;;;;4.17;2.10;;;;;;;17.74;33.79;100753.22;5088537;28;20269;-70
2022/04/18 10:53:14;;;;;;;7.47;1.77;;;;;;;17.84;33.24;100757.28;5085323;28;20294;-70
2022/04/18 10:56:09;;;;;;;5.03;2.47;;;;;;;17.75;32.87;100752.22;5086353;28;20792;-71
2022/04/18 10:58:43;;;;;;;4.17;1.97;;;;;;;17.72;33.34;100747.22;5084905;28;20235;-70
2022/04/18 11:01:11;;;;;;;4.27;1.90;;;;;;;17.59;32.87;100747.88;5086756;28;20655;-71
2022/04/18 11:03:43;;;;;;;5.33;2.33;;;;;;;17.65;33.24;100737.25;5088667;28;20213;-71
2022/04/18 11:06:11;;;;;;;3.33;1.73;;;;;;;17.78;32.68;100741.91;5086480;28;20207;-70
2022/04/18 11:08:39;;;;;;;4.80;2.23;;;;;;;17.87;31.72;100750.69;5087985;28;20583;-70
2022/04/18 11:11:08;;;;;;;4.43;2.37;;;;;;;17.91;30.62;100727.84;5088809;28;20210;-70
2022/04/18 11:13:36;;;;;;;4.57;1.80;;;;;;;17.88;31.33;100742.44;5087029;28;20237;-69
2022/04/18 11:16:46;;;;;;;2.83;1.70;;;;;;;17.87;31.40;100729.22;5087972;28;20202;-70
2022/04/18 11:19:19;;;;;;;4.43;2.10;;;;;;;18.00;30.77;100726.69;5086298;28;20213;-70
2022/04/18 11:22:10;;;;;;;6.80;2.10;;;;;;;19.07;30.94;100717.53;5079879;28;21393;-70
2022/04/18 11:24:40;;;;;;;4.90;1.63;;;;;;;18.48;31.23;100721.56;5085006;28;20234;-68
2022/04/18 11:27:10;;;;;;;4.10;1.80;;;;;;;18.40;30.60;100722.53;5085944;28;20238;-68
2022/04/18 11:29:38;;;;;;;3.37;1.60;;;;;;;18.55;31.39;100707.19;5086990;28;20293;-69
2022/04/18 11:32:09;;;;;;;3.37;1.70;;;;;;;18.60;31.08;100703.94;5086995;28;20233;-68
2022/04/18 11:34:37;;;;;;;2.67;1.50;;;;;;;18.68;30.69;100706.50;5086818;28;20234;-70
2022/04/18 11:37:08;;;;;;;3.10;1.30;;;;;;;18.70;30.80;100699.91;5086936;28;20202;-70
2022/04/18 11:39:49;;;;;;;2.10;1.20;;;;;;;18.84;30.46;100700.00;5086669;28;20194;-71
2022/04/18 11:42:19;;;;;;;3.53;1.50;;;;;;;18.98;30.58;100697.22;5084199;28;20262;-72
2022/04/18 11:44:49;;;;;;;6.23;1.90;;;;;;;20.29;28.45;100690.66;5085927;28;20195;-72
2022/04/18 11:47:22;;;;;;;4.23;1.60;;;;;;;22.57;26.33;100680.28;5082137;28;20223;-67
2022/04/18 11:49:55;;;;;;;4.90;1.73;;;;;;;23.75;23.67;100683.56;5083221;28;20470;-70
2022/04/18 11:52:25;;;;;;;6.55;1.83;;;;;;;25.31;21.87;100683.09;5083838;28;20214;-70
2022/04/18 11:54:58;;;;;;;3.83;1.63;;;;;;;26.69;20.01;100675.56;5083512;28;20597;-70
2022/04/18 11:57:27;;;;;;;3.95;1.42;;;;;;;27.46;20.16;100668.19;5083880;28;20215;-70